createdAt,value
2023-02-02T00:00:45.144Z,8.35
2023-02-02T00:03:11.604Z,8.35
2023-02-02T00:05:38.062Z,8.32
2023-02-02T00:08:04.859Z,8.33
2023-02-02T00:10:31.284Z,8.32
2023-02-02T00:12:57.865Z,8.30
2023-02-02T00:15:25.067Z,8.33
2023-02-02T00:17:51.725Z,8.32
2023-02-02T00:20:20.446Z,8.31
2023-02-02T00:22:46.886Z,8.27
2023-02-02T00:25:13.377Z,8.23
2023-02-02T00:27:39.853Z,8.19
2023-02-02T00:30:07.310Z,8.14
2023-02-02T00:32:33.914Z,8.07
2023-02-02T00:35:00.421Z,8.00
2023-02-02T00:37:26.908Z,7.94
2023-02-02T00:39:53.382Z,7.88
2023-02-02T00:42:19.879Z,7.81
2023-02-02T00:44:46.313Z,7.75
2023-02-02T00:47:12.770Z,7.69
2023-02-02T00:49:39.276Z,7.62
2023-02-02T00:52:05.769Z,7.59
2023-02-02T00:54:32.343Z,7.54
2023-02-02T00:56:58.881Z,7.45
2023-02-02T00:59:25.365Z,7.43
2023-02-02T01:01:52.021Z,7.39
2023-02-02T01:04:18.522Z,7.35
2023-02-02T01:06:46.203Z,7.31
2023-02-02T01:09:12.964Z,7.32
2023-02-02T01:11:39.429Z,7.29
2023-02-02T01:14:06.096Z,7.28
2023-02-02T01:16:34.277Z,7.25
2023-02-02T01:19:00.815Z,7.23
2023-02-02T01:21:27.609Z,7.20
2023-02-02T01:23:54.064Z,7.18
2023-02-02T01:26:20.516Z,7.16
2023-02-02T01:28:47.289Z,7.14
2023-02-02T01:31:17.147Z,7.04
2023-02-02T01:33:45.209Z,7.06
2023-02-02T01:36:15.512Z,7.02
2023-02-02T01:38:43.260Z,7.01
2023-02-02T01:41:14.110Z,6.97
2023-02-02T01:43:43.650Z,6.95
2023-02-02T01:46:18.923Z,6.94
2023-02-02T01:48:54.953Z,6.90
2023-02-02T01:51:25.187Z,6.89
2023-02-02T01:53:54.597Z,6.81
2023-02-02T01:56:46.813Z,6.83
2023-02-02T01:59:16.333Z,6.83
2023-02-02T02:01:46.350Z,6.77
2023-02-02T02:04:13.560Z,6.82
2023-02-02T02:06:40.146Z,6.81
2023-02-02T02:09:08.276Z,6.79
2023-02-02T02:11:37.148Z,6.79
2023-02-02T02:14:07.995Z,6.74
2023-02-02T02:16:46.709Z,6.78
2023-02-02T02:19:31.845Z,6.76
2023-02-02T02:22:14.516Z,6.74
2023-02-02T02:25:01.266Z,6.72
2023-02-02T02:28:22.604Z,6.70
2023-02-02T02:31:07.323Z,6.68
2023-02-02T02:33:53.462Z,6.65
2023-02-02T02:36:25.111Z,6.63
2023-02-02T02:39:13.295Z,6.57
2023-02-02T02:41:45.986Z,6.56
2023-02-02T02:44:16.198Z,6.53
2023-02-02T02:46:43.909Z,6.57
2023-02-02T02:49:12.686Z,6.55
2023-02-02T02:51:50.239Z,6.50
2023-02-02T02:54:32.642Z,6.56
2023-02-02T02:57:22.753Z,6.53
2023-02-02T03:00:02.841Z,6.53
2023-02-02T03:03:01.406Z,6.53
2023-02-02T03:05:44.826Z,6.54
2023-02-02T03:08:27.311Z,6.50
2023-02-02T03:10:56.599Z,6.51
2023-02-02T03:13:23.509Z,6.56
2023-02-02T03:15:50.005Z,6.57
2023-02-02T03:18:19.080Z,6.53
2023-02-02T03:20:45.984Z,6.57
2023-02-02T03:23:13.237Z,6.55
2023-02-02T03:25:39.762Z,6.58
2023-02-02T03:28:06.983Z,6.58
2023-02-02T03:30:34.401Z,6.58
2023-02-02T03:33:00.924Z,6.59
2023-02-02T03:35:27.367Z,6.60
2023-02-02T03:37:53.792Z,6.63
2023-02-02T03:40:20.328Z,6.63
2023-02-02T03:42:46.760Z,6.62
2023-02-02T03:45:13.505Z,6.63
2023-02-02T03:47:39.975Z,6.63
2023-02-02T03:50:09.799Z,6.63
2023-02-02T03:52:36.395Z,6.65
2023-02-02T03:55:03.401Z,6.65
2023-02-02T03:57:29.830Z,6.66
2023-02-02T03:59:56.322Z,6.67
2023-02-02T04:02:23.251Z,6.69
2023-02-02T04:04:49.706Z,6.69
2023-02-02T04:07:16.236Z,6.72
2023-02-02T04:09:42.759Z,6.74
2023-02-02T04:12:09.249Z,6.76
2023-02-02T04:14:35.803Z,6.78
2023-02-02T04:17:02.291Z,6.80
2023-02-02T04:19:28.764Z,6.83
2023-02-02T04:21:55.228Z,6.85
2023-02-02T04:24:21.762Z,6.88
2023-02-02T04:26:48.281Z,6.92
2023-02-02T04:29:14.802Z,6.94
2023-02-02T04:31:41.309Z,6.96
2023-02-02T04:34:07.754Z,6.98
2023-02-02T04:36:34.380Z,6.99
2023-02-02T04:39:00.892Z,7.00
2023-02-02T04:41:27.388Z,6.99
2023-02-02T04:43:53.834Z,6.97
2023-02-02T04:46:20.351Z,6.95
2023-02-02T04:48:48.787Z,6.90
2023-02-02T04:51:15.486Z,6.93
2023-02-02T04:53:42.862Z,6.93
2023-02-02T04:56:17.911Z,6.87
2023-02-02T04:58:45.337Z,6.94
2023-02-02T05:01:17.421Z,6.93
2023-02-02T05:03:44.858Z,6.92
2023-02-02T05:06:13.496Z,6.91
2023-02-02T05:08:41.219Z,6.90
2023-02-02T05:11:12.337Z,6.89
2023-02-02T05:13:38.818Z,6.88
2023-02-02T05:16:06.573Z,6.86
2023-02-02T05:18:33.331Z,6.84
2023-02-02T05:21:00.759Z,6.84
2023-02-02T05:23:27.434Z,6.84
2023-02-02T05:25:54.975Z,6.83
2023-02-02T05:28:23.128Z,6.85
2023-02-02T05:30:50.110Z,6.85
2023-02-02T05:33:17.121Z,6.88
2023-02-02T05:35:48.195Z,6.89
2023-02-02T05:38:15.744Z,6.90
2023-02-02T05:40:42.508Z,6.89
2023-02-02T05:43:09.013Z,6.91
2023-02-02T05:45:35.468Z,6.89
2023-02-02T05:48:01.972Z,6.89
2023-02-02T05:50:28.462Z,6.89
2023-02-02T05:53:03.220Z,6.87
2023-02-02T05:55:29.794Z,6.85
2023-02-02T05:57:56.192Z,6.84
2023-02-02T06:00:22.938Z,6.82
2023-02-02T06:02:49.412Z,6.80
2023-02-02T06:05:15.995Z,6.80
2023-02-02T06:07:42.487Z,6.79
2023-02-02T06:10:09.263Z,6.77
2023-02-02T06:12:35.691Z,6.76
2023-02-02T06:15:02.180Z,6.74
2023-02-02T06:17:28.629Z,6.71
2023-02-02T06:19:55.122Z,6.70
2023-02-02T06:22:21.648Z,6.66
2023-02-02T06:24:48.192Z,6.66
2023-02-02T06:27:14.635Z,6.64
2023-02-02T06:29:41.126Z,6.63
2023-02-02T06:32:07.616Z,6.60
2023-02-02T06:34:34.095Z,6.60
2023-02-02T06:37:00.580Z,6.60
2023-02-02T06:39:27.078Z,6.59
2023-02-02T06:41:53.516Z,6.62
2023-02-02T06:44:20.100Z,6.60
2023-02-02T06:46:46.768Z,6.61
2023-02-02T06:49:13.409Z,6.63
2023-02-02T06:51:39.860Z,6.63
2023-02-02T06:54:06.302Z,6.64
2023-02-02T06:56:32.805Z,6.65
2023-02-02T06:58:59.246Z,6.67
2023-02-02T07:01:25.792Z,6.68
2023-02-02T07:03:53.341Z,6.70
2023-02-02T07:06:25.636Z,6.70
2023-02-02T07:08:57.613Z,6.74
2023-02-02T07:11:29.057Z,6.76
2023-02-02T07:13:55.661Z,6.78
2023-02-02T07:16:22.128Z,6.82
2023-02-02T07:18:48.689Z,6.83
2023-02-02T07:21:20.842Z,6.80
2023-02-02T07:23:47.432Z,6.84
2023-02-02T07:26:15.125Z,6.85
2023-02-02T07:28:42.158Z,6.85
2023-02-02T07:31:18.228Z,6.84
2023-02-02T07:33:45.819Z,6.84
2023-02-02T07:36:14.251Z,6.84
2023-02-02T07:38:40.735Z,6.85
2023-02-02T07:41:07.244Z,6.85
2023-02-02T07:43:33.788Z,6.87
2023-02-02T07:46:02.145Z,6.87
2023-02-02T07:48:32.047Z,6.91
2023-02-02T07:51:00.051Z,6.92
2023-02-02T07:53:27.603Z,6.98
2023-02-02T07:55:54.213Z,7.01
2023-02-02T07:58:20.659Z,7.05
2023-02-02T08:00:47.263Z,7.07
2023-02-02T08:03:13.782Z,7.10
2023-02-02T08:05:40.393Z,7.12
2023-02-02T08:08:06.905Z,7.14
2023-02-02T08:10:33.371Z,7.16
2023-02-02T08:12:59.904Z,7.17
2023-02-02T08:15:26.630Z,7.18
2023-02-02T08:17:53.251Z,7.21
2023-02-02T08:20:19.711Z,7.24
2023-02-02T08:22:46.208Z,7.25
2023-02-02T08:25:12.649Z,7.30
2023-02-02T08:27:39.296Z,7.34
2023-02-02T08:30:06.187Z,7.38
2023-02-02T08:32:32.691Z,7.43
2023-02-02T08:34:59.130Z,7.49
2023-02-02T08:37:25.609Z,7.54
2023-02-02T08:39:52.037Z,7.59
2023-02-02T08:42:18.495Z,7.65
2023-02-02T08:46:02.798Z,7.71
2023-02-02T08:47:31.467Z,7.79
2023-02-02T08:49:57.965Z,7.84
2023-02-02T08:52:25.857Z,7.91
2023-02-02T08:54:52.418Z,7.99
2023-02-02T08:57:18.892Z,8.11
2023-02-02T08:59:45.325Z,8.25
2023-02-02T09:02:11.835Z,8.46
2023-02-02T09:04:38.311Z,8.69
2023-02-02T09:07:04.777Z,8.93
2023-02-02T09:09:31.207Z,9.18
2023-02-02T09:11:57.732Z,9.42
2023-02-02T09:14:24.254Z,9.65
2023-02-02T09:16:50.914Z,9.88
2023-02-02T09:19:17.427Z,10.09
2023-02-02T09:21:43.898Z,10.22
2023-02-02T09:24:12.558Z,10.28
2023-02-02T09:26:39.730Z,10.28
2023-02-02T09:29:08.530Z,10.24
2023-02-02T09:31:37.222Z,10.19
2023-02-02T09:34:06.252Z,10.14
2023-02-02T09:36:33.530Z,10.12
2023-02-02T09:39:00.318Z,10.08
2023-02-02T09:41:38.682Z,10.14
2023-02-02T09:44:24.427Z,10.34
2023-02-02T09:47:21.448Z,10.60
2023-02-02T09:50:16.078Z,10.97
2023-02-02T09:52:45.369Z,11.28
2023-02-02T09:55:14.132Z,11.54
2023-02-02T09:57:48.855Z,11.81
2023-02-02T10:00:36.231Z,12.19
2023-02-02T10:03:22.680Z,12.38
2023-02-02T10:05:57.378Z,12.72
2023-02-02T10:08:38.542Z,12.99
2023-02-02T10:11:25.924Z,13.15
2023-02-02T10:13:56.748Z,13.34
2023-02-02T10:16:24.827Z,13.38
2023-02-02T10:19:04.586Z,13.40
2023-02-02T10:21:59.170Z,13.48
2023-02-02T10:24:29.275Z,13.57
2023-02-02T10:26:59.674Z,13.69
2023-02-02T10:29:48.613Z,13.73
2023-02-02T10:32:28.672Z,13.94
2023-02-02T10:35:18.238Z,14.16
2023-02-02T10:38:13.448Z,14.36
2023-02-02T10:40:46.113Z,14.55
2023-02-02T10:43:27.511Z,14.58
2023-02-02T10:45:56.037Z,14.49
2023-02-02T10:48:26.510Z,14.43
2023-02-02T10:50:57.803Z,14.36
2023-02-02T10:53:28.401Z,14.25
2023-02-02T10:56:08.721Z,14.12
2023-02-02T10:58:54.834Z,14.10
2023-02-02T11:01:21.351Z,14.10
2023-02-02T11:03:48.659Z,14.10
2023-02-02T11:06:16.219Z,14.08
2023-02-02T11:08:44.625Z,14.07
2023-02-02T11:11:17.410Z,14.06
2023-02-02T11:13:50.723Z,14.10
2023-02-02T11:16:17.284Z,14.05
2023-02-02T11:18:45.004Z,14.03
2023-02-02T11:21:24.446Z,13.92
2023-02-02T11:23:53.799Z,13.79
2023-02-02T11:26:21.908Z,13.73
2023-02-02T11:28:49.557Z,13.64
2023-02-02T11:31:35.599Z,13.55
2023-02-02T11:34:28.528Z,13.50
2023-02-02T11:37:21.377Z,13.43
2023-02-02T11:39:48.061Z,13.39
2023-02-02T11:42:20.808Z,13.48
2023-02-02T11:44:53.468Z,13.55
2023-02-02T11:47:30.359Z,13.51
2023-02-02T11:49:58.795Z,13.49
2023-02-02T11:52:29.641Z,13.49
2023-02-02T11:55:01.419Z,13.59
2023-02-02T11:57:29.098Z,13.76
2023-02-02T12:00:10.901Z,13.81
2023-02-02T12:02:37.496Z,13.81
2023-02-02T12:05:10.010Z,13.73
2023-02-02T12:07:36.648Z,13.67
2023-02-02T12:10:18.788Z,13.62
2023-02-02T12:12:54.662Z,13.65
2023-02-02T12:15:25.930Z,13.64
2023-02-02T12:18:01.908Z,13.67
2023-02-02T12:21:00.596Z,13.67
2023-02-02T12:23:55.057Z,13.59
2023-02-02T12:26:27.276Z,13.53
2023-02-02T12:29:16.785Z,13.37
2023-02-02T12:32:20.767Z,13.24
2023-02-02T12:35:05.198Z,13.11
2023-02-02T12:37:57.552Z,13.03
2023-02-02T12:40:42.372Z,12.98
2023-02-02T12:43:18.996Z,12.89
2023-02-02T12:46:06.980Z,12.87
2023-02-02T12:48:45.680Z,12.77
2023-02-02T12:51:50.351Z,12.72
2023-02-02T12:54:47.866Z,12.63
2023-02-02T12:57:54.871Z,12.55
2023-02-02T13:00:38.855Z,12.52
2023-02-02T13:03:15.842Z,12.48
2023-02-02T13:05:50.310Z,12.40
2023-02-02T13:08:23.558Z,12.40
2023-02-02T13:10:54.787Z,12.38
2023-02-02T13:13:36.110Z,12.33
2023-02-02T13:16:21.034Z,12.31
2023-02-02T13:18:54.944Z,12.30
2023-02-02T13:21:24.600Z,12.28
2023-02-02T13:23:55.651Z,12.23
2023-02-02T13:26:44.201Z,12.17
2023-02-02T13:29:10.679Z,12.17
2023-02-02T13:31:51.716Z,12.18
2023-02-02T13:34:24.399Z,12.17
2023-02-02T13:36:59.324Z,12.20
2023-02-02T13:39:34.854Z,12.23
2023-02-02T13:42:03.154Z,12.25
2023-02-02T13:44:38.234Z,12.25
2023-02-02T13:47:34.976Z,12.27
2023-02-02T13:50:09.809Z,12.34
2023-02-02T13:52:45.111Z,12.34
2023-02-02T13:55:26.901Z,12.33
2023-02-02T13:58:19.302Z,12.37
2023-02-02T14:00:49.610Z,12.39
2023-02-02T14:03:48.335Z,12.40
2023-02-02T14:06:22.268Z,12.46
2023-02-02T14:09:01.448Z,12.54
2023-02-02T14:11:32.662Z,12.65
2023-02-02T14:14:21.261Z,12.74
2023-02-02T14:16:49.703Z,12.85
2023-02-02T14:19:41.552Z,12.94
2023-02-02T14:22:11.481Z,13.03
2023-02-02T14:24:37.903Z,13.07
2023-02-02T14:27:07.496Z,13.05
2023-02-02T14:29:35.209Z,13.02
2023-02-02T14:32:37.324Z,13.00
2023-02-02T14:35:12.915Z,13.04
2023-02-02T14:37:51.156Z,13.04
2023-02-02T14:40:53.029Z,13.11
2023-02-02T14:43:22.556Z,13.16
2023-02-02T14:46:14.976Z,13.19
2023-02-02T14:48:46.561Z,13.20
2023-02-02T14:51:18.992Z,13.15
2023-02-02T14:53:54.903Z,13.07
2023-02-02T14:56:39.983Z,12.97
2023-02-02T14:59:06.957Z,12.90
2023-02-02T15:01:35.493Z,12.84
2023-02-02T15:04:23.927Z,12.77
2023-02-02T15:06:51.884Z,12.67
2023-02-02T15:09:21.137Z,12.69
2023-02-02T15:12:01.655Z,12.63
2023-02-02T15:14:28.401Z,12.56
2023-02-02T15:16:55.643Z,12.49
2023-02-02T15:19:34.219Z,12.35
2023-02-02T15:22:18.432Z,12.35
2023-02-02T15:24:45.822Z,12.33
2023-02-02T15:27:18.393Z,12.23
2023-02-02T15:29:49.338Z,12.25
2023-02-02T15:32:18.873Z,12.20
2023-02-02T15:34:48.242Z,12.21
2023-02-02T15:37:19.962Z,12.17
2023-02-02T15:39:51.007Z,12.18
2023-02-02T15:42:41.192Z,12.15
2023-02-02T15:45:27.704Z,12.14
2023-02-02T15:47:55.636Z,12.10
2023-02-02T15:50:22.354Z,12.06
2023-02-02T15:52:50.983Z,12.02
2023-02-02T15:55:30.435Z,11.99
2023-02-02T15:57:57.182Z,11.94
2023-02-02T16:00:32.722Z,11.86
2023-02-02T16:02:59.200Z,11.87
2023-02-02T16:05:31.440Z,11.81
2023-02-02T16:08:05.610Z,11.73
2023-02-02T16:10:33.807Z,11.72
2023-02-02T16:13:00.348Z,11.66
2023-02-02T16:15:28.917Z,11.57
2023-02-02T16:17:59.218Z,11.57
2023-02-02T16:20:28.153Z,11.53
2023-02-02T16:22:57.324Z,11.43
2023-02-02T16:25:24.154Z,11.43
2023-02-02T16:27:51.190Z,11.39
2023-02-02T16:30:47.777Z,11.34
2023-02-02T16:33:30.824Z,11.29
2023-02-02T16:35:57.724Z,11.24
2023-02-02T16:38:35.154Z,11.21
2023-02-02T16:41:13.581Z,11.16
2023-02-02T16:43:42.084Z,11.11
2023-02-02T16:46:14.003Z,11.03
2023-02-02T16:48:58.245Z,11.02
2023-02-02T16:51:28.737Z,10.97
2023-02-02T16:54:06.322Z,10.94
2023-02-02T16:56:38.299Z,10.86
2023-02-02T16:59:13.767Z,10.88
2023-02-02T17:01:48.522Z,10.81
2023-02-02T17:04:26.031Z,10.81
2023-02-02T17:06:55.130Z,10.78
2023-02-02T17:09:33.137Z,10.79
2023-02-02T17:12:32.144Z,10.76
2023-02-02T17:15:02.898Z,10.75
2023-02-02T17:17:29.394Z,10.75
2023-02-02T17:19:56.318Z,10.72
2023-02-02T17:22:25.941Z,10.65
2023-02-02T17:24:53.040Z,10.69
2023-02-02T17:27:29.009Z,10.69
2023-02-02T17:29:56.825Z,10.69
2023-02-02T17:32:23.345Z,10.72
2023-02-02T17:34:49.849Z,10.68
2023-02-02T17:37:16.370Z,10.70
2023-02-02T17:39:42.985Z,10.68
2023-02-02T17:42:35.793Z,10.66
2023-02-02T17:45:02.270Z,10.65
2023-02-02T17:47:28.824Z,10.64
2023-02-02T17:49:55.417Z,10.64
2023-02-02T17:52:21.901Z,10.63
2023-02-02T17:54:48.395Z,10.60
2023-02-02T17:57:14.899Z,10.65
2023-02-02T17:59:41.378Z,10.65
2023-02-02T18:02:12.699Z,10.62
2023-02-02T18:04:39.237Z,10.68
2023-02-02T18:07:05.760Z,10.69
2023-02-02T18:09:33.790Z,10.69
2023-02-02T18:12:00.446Z,10.69
2023-02-02T18:14:26.973Z,10.70
2023-02-02T18:16:53.459Z,10.73
2023-02-02T18:19:19.963Z,10.74
2023-02-02T18:21:46.423Z,10.74
2023-02-02T18:24:13.601Z,10.75
2023-02-02T18:26:40.107Z,10.77
2023-02-02T18:29:06.925Z,10.77
2023-02-02T18:31:33.515Z,10.77
2023-02-02T18:34:00.226Z,10.76
2023-02-02T18:36:26.712Z,10.76
2023-02-02T18:38:53.217Z,10.76
2023-02-02T18:41:20.490Z,10.77
2023-02-02T18:43:47.511Z,10.76
2023-02-02T18:46:15.791Z,10.76
2023-02-02T18:48:42.907Z,10.76
2023-02-02T18:51:15.040Z,10.77
2023-02-02T18:53:46.129Z,10.76
2023-02-02T18:56:14.689Z,10.70
2023-02-02T18:58:41.579Z,10.75
2023-02-02T19:01:16.347Z,10.73
2023-02-02T19:03:47.128Z,10.72
2023-02-02T19:06:13.760Z,10.70
2023-02-02T19:08:40.239Z,10.70
2023-02-02T19:11:15.146Z,10.69
2023-02-02T19:13:41.652Z,10.68
2023-02-02T19:16:40.516Z,10.66
2023-02-02T19:19:22.008Z,10.64
2023-02-02T19:21:48.697Z,10.63
2023-02-02T19:24:15.147Z,10.63
2023-02-02T19:26:46.164Z,10.60
2023-02-02T19:29:23.315Z,10.61
2023-02-02T19:31:58.662Z,10.55
2023-02-02T19:34:25.239Z,10.60
2023-02-02T19:36:51.773Z,10.60
2023-02-02T19:39:29.703Z,10.61
2023-02-02T19:42:00.418Z,10.56
2023-02-02T19:44:31.016Z,10.58
2023-02-02T19:46:57.829Z,10.59
2023-02-02T19:49:32.283Z,10.57
2023-02-02T19:51:59.709Z,10.56
2023-02-02T19:54:28.024Z,10.58
2023-02-02T19:57:13.757Z,10.58
2023-02-02T19:59:41.716Z,10.55
2023-02-02T20:02:37.367Z,10.55
2023-02-02T20:05:17.588Z,10.50
2023-02-02T20:07:44.116Z,10.56
2023-02-02T20:10:23.781Z,10.53
2023-02-02T20:12:51.758Z,10.53
2023-02-02T20:15:34.421Z,10.54
2023-02-02T20:18:05.147Z,10.54
2023-02-02T20:20:43.767Z,10.54
2023-02-02T20:23:35.934Z,10.48
2023-02-02T20:26:07.728Z,10.44
2023-02-02T20:28:45.103Z,10.50
2023-02-02T20:31:18.279Z,10.45
2023-02-02T20:33:51.957Z,10.48
2023-02-02T20:36:30.131Z,10.43
2023-02-02T20:39:00.058Z,10.46
2023-02-02T20:41:26.826Z,10.45
2023-02-02T20:43:53.315Z,10.46
2023-02-02T20:46:19.866Z,10.45
2023-02-02T20:48:46.385Z,10.44
2023-02-02T20:51:12.910Z,10.42
2023-02-02T20:53:39.614Z,10.40
2023-02-02T20:56:06.297Z,10.36
2023-02-02T20:58:32.821Z,10.31
2023-02-02T21:00:59.367Z,10.28
2023-02-02T21:03:25.881Z,10.25
2023-02-02T21:05:52.409Z,10.24
2023-02-02T21:08:18.857Z,10.23
2023-02-02T21:10:45.318Z,10.20
2023-02-02T21:13:11.817Z,10.20
2023-02-02T21:15:38.330Z,10.17
2023-02-02T21:18:04.846Z,10.15
2023-02-02T21:20:31.379Z,10.12
2023-02-02T21:22:57.850Z,10.09
2023-02-02T21:25:25.063Z,10.05
2023-02-02T21:27:57.462Z,9.99
2023-02-02T21:30:23.937Z,9.94
2023-02-02T21:32:50.472Z,9.88
2023-02-02T21:35:17.311Z,9.82
2023-02-02T21:37:43.882Z,9.76
2023-02-02T21:40:15.205Z,9.70
2023-02-02T21:42:47.689Z,9.58
2023-02-02T21:45:20.207Z,9.53
2023-02-02T21:47:53.744Z,9.46
2023-02-02T21:50:42.406Z,9.46
2023-02-02T21:53:20.683Z,9.37
2023-02-02T21:55:50.070Z,9.38
2023-02-02T21:58:35.062Z,9.29
2023-02-02T22:01:22.553Z,9.30
2023-02-02T22:03:49.407Z,9.30
2023-02-02T22:06:28.407Z,9.30
2023-02-02T22:09:26.101Z,9.29
2023-02-02T22:12:00.518Z,9.28
2023-02-02T22:14:40.900Z,9.25
2023-02-02T22:17:34.165Z,9.20
2023-02-02T22:20:07.175Z,9.18
2023-02-02T22:22:36.180Z,9.15
2023-02-02T22:25:33.430Z,9.11
2023-02-02T22:28:13.088Z,9.03
2023-02-02T22:30:41.650Z,9.04
2023-02-02T22:33:10.457Z,9.01
2023-02-02T22:35:37.946Z,9.00
2023-02-02T22:38:05.010Z,8.97
2023-02-02T22:40:31.606Z,8.95
2023-02-02T22:43:05.274Z,8.91
2023-02-02T22:45:32.028Z,8.90
2023-02-02T22:47:58.624Z,8.88
2023-02-02T22:50:28.235Z,8.85
2023-02-02T22:52:55.134Z,8.82
2023-02-02T22:55:22.224Z,8.79
2023-02-02T22:57:48.794Z,8.77
2023-02-02T23:00:21.729Z,8.74
2023-02-02T23:02:48.576Z,8.72
2023-02-02T23:05:16.970Z,8.71
2023-02-02T23:07:44.015Z,8.71
2023-02-02T23:10:17.183Z,8.72
2023-02-02T23:12:44.274Z,8.74
2023-02-02T23:15:12.289Z,8.75
2023-02-02T23:17:38.990Z,8.78
2023-02-02T23:20:07.990Z,8.76
2023-02-02T23:22:34.545Z,8.78
2023-02-02T23:25:01.030Z,8.77
2023-02-02T23:27:27.722Z,8.76
2023-02-02T23:29:54.198Z,8.76
2023-02-02T23:32:20.780Z,8.76
2023-02-02T23:34:47.315Z,8.77
2023-02-02T23:37:13.831Z,8.77
2023-02-02T23:39:40.308Z,8.80
2023-02-02T23:42:06.791Z,8.80
2023-02-02T23:44:33.228Z,8.79
2023-02-02T23:47:01.782Z,8.73
2023-02-02T23:49:30.248Z,8.77
2023-02-02T23:51:56.925Z,8.76
2023-02-02T23:54:23.499Z,8.73
2023-02-02T23:56:50.656Z,8.72
2023-02-02T23:59:17.355Z,8.71
